createdAt,value
2019-05-17T00:01:57.506Z,98031.00
2019-05-17T00:04:26.852Z,98033.00
2019-05-17T00:06:53.638Z,98029.00
2019-05-17T00:09:22.633Z,98026.00
2019-05-17T00:11:49.878Z,98030.00
2019-05-17T00:14:17.142Z,98022.00
2019-05-17T00:16:46.788Z,98015.00
2019-05-17T00:19:13.842Z,98012.00
2019-05-17T00:21:41.138Z,98022.00
2019-05-17T00:24:08.448Z,98009.00
2019-05-17T00:26:36.282Z,98014.00
2019-05-17T00:31:36.811Z,98006.00
2019-05-17T00:34:03.740Z,98009.00
2019-05-17T00:36:31.401Z,98010.00
2019-05-17T00:38:58.655Z,97999.00
2019-05-17T00:41:26.905Z,97996.00
2019-05-17T00:43:56.780Z,97995.00
2019-05-17T00:46:23.482Z,98004.00
2019-05-17T00:48:50.930Z,97990.00
2019-05-17T00:51:18.187Z,98002.00
2019-05-17T00:53:46.807Z,97994.00
2019-05-17T00:56:14.141Z,97990.00
2019-05-17T00:58:41.701Z,97994.00
2019-05-17T01:01:09.131Z,97985.00
2019-05-17T01:03:36.406Z,97982.00
2019-05-17T01:06:06.167Z,97977.00
2019-05-17T01:08:32.942Z,97982.00
2019-05-17T01:11:00.386Z,97980.00
2019-05-17T01:13:28.171Z,97977.00
2019-05-17T01:15:56.577Z,97985.00
2019-05-17T01:18:24.221Z,97983.00
2019-05-17T01:20:51.861Z,97981.00
2019-05-17T01:23:19.316Z,97976.00
2019-05-17T01:28:16.349Z,97981.00
2019-05-17T01:30:43.516Z,97968.00
2019-05-17T01:33:11.187Z,97968.00
2019-05-17T01:35:38.661Z,97974.00
2019-05-17T01:38:07.397Z,97972.00
2019-05-17T01:40:36.944Z,97966.00
2019-05-17T01:43:04.055Z,97971.00
2019-05-17T01:45:31.175Z,97966.00
2019-05-17T01:47:58.683Z,97973.00
2019-05-17T01:50:26.635Z,97963.00
2019-05-17T01:52:56.474Z,97959.00
2019-05-17T01:55:23.567Z,97967.00
2019-05-17T01:57:51.067Z,97965.00
2019-05-17T02:00:19.276Z,97968.00
2019-05-17T02:02:51.286Z,97951.00
2019-05-17T02:05:18.696Z,97961.00
2019-05-17T02:07:46.569Z,97955.00
2019-05-17T02:10:16.728Z,97959.00
2019-05-17T02:12:48.754Z,97961.00
2019-05-17T02:15:16.694Z,97948.00
2019-05-17T02:17:46.620Z,97950.00
2019-05-17T02:20:17.126Z,97944.00
2019-05-17T02:22:47.067Z,97956.00
2019-05-17T02:25:16.776Z,97941.00
2019-05-17T02:27:44.890Z,97947.00
2019-05-17T02:30:14.526Z,97943.00
2019-05-17T02:32:43.430Z,97943.00
2019-05-17T02:35:14.383Z,97945.00
2019-05-17T02:37:43.257Z,97941.00
2019-05-17T02:40:14.911Z,97948.00
2019-05-17T02:42:43.277Z,97947.00
2019-05-17T02:45:14.039Z,97940.00
2019-05-17T02:47:43.701Z,97940.00
2019-05-17T02:50:12.963Z,97945.00
2019-05-17T02:52:43.748Z,97945.00
2019-05-17T02:55:12.719Z,97932.00
2019-05-17T02:57:42.830Z,97938.00
2019-05-17T03:00:09.122Z,97935.00
2019-05-17T03:02:36.429Z,97940.00
2019-05-17T03:05:06.502Z,97934.00
2019-05-17T03:07:34.079Z,97928.00
2019-05-17T03:10:13.812Z,97925.00
2019-05-17T03:12:32.984Z,97931.00
2019-05-17T03:15:03.770Z,97933.00
2019-05-17T03:17:28.981Z,97930.00
2019-05-17T03:19:56.296Z,97931.00
2019-05-17T03:22:23.863Z,97928.00
2019-05-17T03:24:53.370Z,97932.00
2019-05-17T03:27:23.240Z,97933.00
2019-05-17T03:29:53.783Z,97937.00
2019-05-17T03:32:25.863Z,97928.00
2019-05-17T03:37:18.224Z,97935.00
2019-05-17T03:39:45.377Z,97934.00
2019-05-17T03:42:13.285Z,97931.00
2019-05-17T03:44:43.644Z,97936.00
2019-05-17T03:47:12.924Z,97931.00
2019-05-17T03:49:39.978Z,97936.00
2019-05-17T03:52:08.180Z,97929.00
2019-05-17T03:54:35.919Z,97926.00
2019-05-17T03:57:03.402Z,97922.00
2019-05-17T03:59:33.460Z,97924.00
2019-05-17T04:02:03.008Z,97923.00
2019-05-17T04:04:29.272Z,97918.00
2019-05-17T04:06:56.898Z,97919.00
2019-05-17T04:09:24.574Z,97910.00
2019-05-17T04:11:53.669Z,97913.00
2019-05-17T04:14:22.525Z,97915.00
2019-05-17T04:16:53.364Z,97916.00
2019-05-17T04:19:19.307Z,97910.00
2019-05-17T04:21:46.475Z,97914.00
2019-05-17T04:24:14.063Z,97910.00
2019-05-17T04:26:43.894Z,97913.00
2019-05-17T04:29:13.601Z,97919.00
2019-05-17T04:31:43.082Z,97908.00
2019-05-17T04:34:09.071Z,97914.00
2019-05-17T04:36:36.412Z,97910.00
2019-05-17T04:41:45.600Z,97918.00
2019-05-17T04:44:06.560Z,97921.00
2019-05-17T04:46:33.939Z,97920.00
2019-05-17T04:49:02.868Z,97921.00
2019-05-17T04:51:32.241Z,97921.00
2019-05-17T04:54:02.975Z,97932.00
2019-05-17T04:56:29.222Z,97941.00
2019-05-17T04:58:56.822Z,97936.00
2019-05-17T05:01:24.184Z,97943.00
2019-05-17T05:03:52.581Z,97941.00
2019-05-17T05:06:23.157Z,97946.00
2019-05-17T05:08:49.406Z,97949.00
2019-05-17T05:11:16.776Z,97955.00
2019-05-17T05:13:44.291Z,97956.00
2019-05-17T05:16:13.568Z,97960.00
2019-05-17T05:18:42.086Z,97958.00
2019-05-17T05:21:12.050Z,97950.00
2019-05-17T05:23:38.870Z,97954.00
2019-05-17T05:26:06.285Z,97961.00
2019-05-17T05:28:33.672Z,97961.00
2019-05-17T05:31:01.930Z,97963.00
2019-05-17T05:33:29.395Z,97968.00
2019-05-17T05:35:56.866Z,97961.00
2019-05-17T05:38:24.011Z,97963.00
2019-05-17T05:40:52.123Z,97959.00
2019-05-17T05:43:22.365Z,97969.00
2019-05-17T05:45:49.230Z,97968.00
2019-05-17T05:48:16.796Z,97971.00
2019-05-17T05:50:44.153Z,97965.00
2019-05-17T05:53:12.918Z,97966.00
2019-05-17T05:55:42.800Z,97968.00
2019-05-17T05:58:12.102Z,97969.00
2019-05-17T06:00:42.332Z,97963.00
2019-05-17T06:03:08.988Z,97958.00
2019-05-17T06:05:36.402Z,97966.00
2019-05-17T06:08:03.736Z,97959.00
2019-05-17T06:10:32.531Z,97958.00
2019-05-17T06:13:03.053Z,97958.00
2019-05-17T06:15:29.265Z,97954.00
2019-05-17T06:17:56.306Z,97957.00
2019-05-17T06:20:23.764Z,97956.00
2019-05-17T06:22:52.855Z,97951.00
2019-05-17T06:25:23.391Z,97950.00
2019-05-17T06:27:51.974Z,97946.00
2019-05-17T06:30:21.810Z,97952.00
2019-05-17T06:32:48.461Z,97946.00
2019-05-17T06:35:15.888Z,97944.00
2019-05-17T06:37:43.320Z,97941.00
2019-05-17T06:40:13.104Z,97936.00
2019-05-17T06:45:12.248Z,97931.00
2019-05-17T06:47:38.985Z,97935.00
2019-05-17T06:50:06.562Z,97925.00
2019-05-17T06:52:33.960Z,97917.00
2019-05-17T06:55:05.358Z,97918.00
2019-05-17T06:57:32.576Z,97923.00
2019-05-17T07:00:02.480Z,97916.00
2019-05-17T07:02:30.838Z,97908.00
2019-05-17T07:05:01.488Z,97922.00
2019-05-17T07:07:30.418Z,97916.00
2019-05-17T07:10:00.542Z,97912.00
2019-05-17T07:12:30.470Z,97916.00
2019-05-17T07:14:58.408Z,97912.00
2019-05-17T07:17:26.473Z,97899.00
2019-05-17T07:19:54.449Z,97902.00
2019-05-17T07:22:21.879Z,97906.00
2019-05-17T07:24:50.272Z,97901.00
2019-05-17T07:27:19.397Z,97896.00
2019-05-17T07:29:46.945Z,97890.00
2019-05-17T07:32:14.285Z,97885.00
2019-05-17T07:37:10.647Z,97884.00
2019-05-17T07:39:40.062Z,97879.00
2019-05-17T07:42:09.577Z,97882.00
2019-05-17T07:44:36.789Z,97872.00
2019-05-17T07:47:04.644Z,97867.00
2019-05-17T07:49:32.009Z,97859.00
2019-05-17T07:52:00.716Z,97857.00
2019-05-17T07:54:30.196Z,97857.00
2019-05-17T07:57:00.097Z,97844.00
2019-05-17T07:59:26.570Z,97851.00
2019-05-17T08:01:53.889Z,97847.00
2019-05-17T08:04:21.151Z,97847.00
2019-05-17T08:06:50.500Z,97840.00
2019-05-17T08:09:20.325Z,97844.00
2019-05-17T08:11:47.149Z,97837.00
2019-05-17T08:14:26.655Z,97831.00
2019-05-17T08:16:44.159Z,97825.00
2019-05-17T08:19:11.824Z,97828.00
2019-05-17T08:21:39.934Z,97817.00
2019-05-17T08:24:07.344Z,97818.00
2019-05-17T08:26:34.734Z,97815.00
2019-05-17T08:29:02.179Z,97811.00
2019-05-17T08:31:29.668Z,97809.00
2019-05-17T08:33:57.259Z,97799.00
2019-05-17T08:36:24.419Z,97801.00
2019-05-17T08:38:51.877Z,97802.00
2019-05-17T08:41:20.787Z,97799.00
2019-05-17T08:43:51.133Z,97803.00
2019-05-17T08:46:19.931Z,97803.00
2019-05-17T08:48:49.390Z,97803.00
2019-05-17T08:51:16.563Z,97800.00
2019-05-17T08:53:43.989Z,97802.00
2019-05-17T08:56:11.454Z,97802.00
2019-05-17T08:58:40.343Z,97790.00
2019-05-17T09:01:10.917Z,97796.00
2019-05-17T09:03:36.933Z,97801.00
2019-05-17T09:06:04.279Z,97798.00
2019-05-17T09:08:31.694Z,97801.00
2019-05-17T09:11:00.301Z,97795.00
2019-05-17T09:13:29.830Z,97788.00
2019-05-17T09:16:00.046Z,97789.00
2019-05-17T09:18:27.065Z,97790.00
2019-05-17T09:20:54.503Z,97794.00
2019-05-17T09:23:21.957Z,97791.00
2019-05-17T09:25:50.112Z,97786.00
2019-05-17T09:28:17.690Z,97788.00
2019-05-17T09:30:45.390Z,97793.00
2019-05-17T09:33:12.894Z,97784.00
2019-05-17T09:35:40.954Z,97762.00
2019-05-17T09:38:10.062Z,97781.00
2019-05-17T09:40:40.172Z,97782.00
2019-05-17T09:43:07.150Z,97780.00
2019-05-17T09:45:35.264Z,97782.00
2019-05-17T09:48:02.650Z,97770.00
2019-05-17T09:50:30.124Z,97765.00
2019-05-17T09:52:57.239Z,97760.00
2019-05-17T09:55:25.025Z,97758.00
2019-05-17T09:57:52.500Z,97756.00
2019-05-17T10:00:20.812Z,97754.00
2019-05-17T10:02:50.544Z,97751.00
2019-05-17T10:05:17.254Z,97761.00
2019-05-17T10:07:45.029Z,97751.00
2019-05-17T10:10:12.980Z,97744.00
2019-05-17T10:12:40.603Z,97735.00
2019-05-17T10:15:10.050Z,97717.00
2019-05-17T10:17:37.559Z,97723.00
2019-05-17T10:20:06.649Z,97729.00
2019-05-17T10:22:43.224Z,97726.00
2019-05-17T10:25:11.477Z,97727.00
2019-05-17T10:27:40.671Z,97726.00
2019-05-17T10:30:10.376Z,97714.00
2019-05-17T10:32:40.811Z,97717.00
2019-05-17T10:37:40.847Z,97718.00
2019-05-17T10:40:10.343Z,97707.00
2019-05-17T10:42:39.617Z,97710.00
2019-05-17T10:45:10.957Z,97708.00
2019-05-17T10:47:39.627Z,97717.00
2019-05-17T10:50:07.482Z,97716.00
2019-05-17T10:52:34.914Z,97711.00
2019-05-17T10:55:03.163Z,97709.00
2019-05-17T10:57:30.430Z,97691.00
2019-05-17T10:59:59.284Z,97705.00
2019-05-17T11:02:26.566Z,97687.00
2019-05-17T11:04:53.976Z,97681.00
2019-05-17T11:07:21.759Z,97683.00
2019-05-17T11:09:51.016Z,97679.00
2019-05-17T11:12:18.138Z,97674.00
2019-05-17T11:14:55.838Z,97683.00
2019-05-17T11:17:16.309Z,97686.00
2019-05-17T11:19:43.894Z,97690.00
2019-05-17T11:22:11.249Z,97678.00
2019-05-17T11:24:38.499Z,97685.00
2019-05-17T11:27:05.704Z,97688.00
2019-05-17T11:29:33.019Z,97683.00
2019-05-17T11:32:00.284Z,97678.00
2019-05-17T11:34:27.744Z,97678.00
2019-05-17T11:36:55.064Z,97682.00
2019-05-17T11:39:22.413Z,97672.00
2019-05-17T11:41:49.559Z,97670.00
2019-05-17T11:44:17.039Z,97665.00
2019-05-17T11:46:44.334Z,97658.00
2019-05-17T11:49:11.589Z,97660.00
2019-05-17T11:51:38.874Z,97654.00
2019-05-17T11:54:06.122Z,97656.00
2019-05-17T11:56:33.479Z,97652.00
2019-05-17T11:59:01.349Z,97645.00
2019-05-17T12:01:28.589Z,97645.00
2019-05-17T12:03:56.154Z,97641.00
2019-05-17T12:06:23.658Z,97642.00
2019-05-17T12:08:51.064Z,97646.00
2019-05-17T12:11:18.640Z,97649.00
2019-05-17T12:13:46.575Z,97642.00
2019-05-17T12:16:13.846Z,97647.00
2019-05-17T12:18:40.920Z,97650.00
2019-05-17T12:21:08.242Z,97636.00
2019-05-17T12:23:35.499Z,97630.00
2019-05-17T12:26:03.430Z,97644.00
2019-05-17T12:28:30.675Z,97622.00
2019-05-17T12:30:58.267Z,97634.00
2019-05-17T12:33:25.933Z,97624.00
2019-05-17T12:35:53.137Z,97628.00
2019-05-17T12:38:20.434Z,97624.00
2019-05-17T12:40:47.571Z,97619.00
2019-05-17T12:43:34.736Z,97616.00
2019-05-17T12:46:02.280Z,97618.00
2019-05-17T12:48:29.616Z,97621.00
2019-05-17T12:50:56.974Z,97613.00
2019-05-17T12:53:24.163Z,97620.00
2019-05-17T12:55:51.458Z,97614.00
2019-05-17T12:58:19.664Z,97608.00
2019-05-17T13:00:47.065Z,97608.00
2019-05-17T13:03:14.531Z,97609.00
2019-05-17T13:05:41.899Z,97615.00
2019-05-17T13:08:09.253Z,97602.00
2019-05-17T13:10:36.521Z,97611.00
2019-05-17T13:13:03.764Z,97607.00
2019-05-17T13:15:31.217Z,97604.00
2019-05-17T13:17:58.586Z,97602.00
2019-05-17T13:20:25.821Z,97597.00
2019-05-17T13:22:53.287Z,97591.00
2019-05-17T13:25:20.728Z,97584.00
2019-05-17T13:27:47.998Z,97580.00
2019-05-17T13:30:16.553Z,97590.00
2019-05-17T13:32:43.879Z,97579.00
2019-05-17T13:35:11.748Z,97591.00
2019-05-17T13:37:38.927Z,97595.00
2019-05-17T13:40:07.761Z,97584.00
2019-05-17T13:42:35.207Z,97577.00
2019-05-17T13:45:05.147Z,97590.00
2019-05-17T13:47:32.365Z,97585.00
2019-05-17T13:49:59.802Z,97580.00
2019-05-17T13:52:27.451Z,97580.00
2019-05-17T13:54:55.852Z,97575.00
2019-05-17T13:57:23.297Z,97571.00
2019-05-17T13:59:50.757Z,97570.00
2019-05-17T14:02:18.102Z,97571.00
2019-05-17T14:04:45.521Z,97570.00
2019-05-17T14:07:12.813Z,97574.00
2019-05-17T14:09:40.209Z,97571.00
2019-05-17T14:12:07.469Z,97563.00
2019-05-17T14:14:34.877Z,97569.00
2019-05-17T14:17:02.608Z,97576.00
2019-05-17T14:19:29.877Z,97579.00
2019-05-17T14:21:57.632Z,97564.00
2019-05-17T14:24:25.399Z,97567.00
2019-05-17T14:26:52.892Z,97561.00
2019-05-17T14:29:20.237Z,97559.00
2019-05-17T14:31:47.672Z,97564.00
2019-05-17T14:34:14.931Z,97562.00
2019-05-17T14:36:42.404Z,97565.00
2019-05-17T14:39:10.033Z,97563.00
2019-05-17T14:41:37.239Z,97550.00
2019-05-17T14:44:04.765Z,97559.00
2019-05-17T14:46:31.997Z,97556.00
2019-05-17T14:48:59.253Z,97544.00
2019-05-17T14:51:26.713Z,97559.00
2019-05-17T14:53:54.128Z,97556.00
2019-05-17T14:56:21.321Z,97556.00
2019-05-17T14:58:48.920Z,97551.00
2019-05-17T15:01:16.280Z,97554.00
2019-05-17T15:03:43.779Z,97551.00
2019-05-17T15:06:11.131Z,97551.00
2019-05-17T15:08:41.890Z,97552.00
2019-05-17T15:11:09.189Z,97549.00
2019-05-17T15:13:36.369Z,97550.00
2019-05-17T15:16:04.344Z,97550.00
2019-05-17T15:18:31.646Z,97553.00
2019-05-17T15:20:58.843Z,97548.00
2019-05-17T15:23:25.914Z,97555.00
2019-05-17T15:28:21.685Z,97555.00
2019-05-17T15:30:48.918Z,97556.00
2019-05-17T15:33:16.159Z,97535.00
2019-05-17T15:35:43.270Z,97537.00
2019-05-17T15:38:11.230Z,97539.00
2019-05-17T15:40:38.553Z,97530.00
2019-05-17T15:43:05.651Z,97525.00
2019-05-17T15:45:32.814Z,97523.00
2019-05-17T15:48:00.043Z,97522.00
2019-05-17T15:50:27.152Z,97505.00
2019-05-17T15:52:54.332Z,97523.00
2019-05-17T15:55:21.603Z,97516.00
2019-05-17T15:57:48.692Z,97523.00
2019-05-17T16:00:16.932Z,97515.00
2019-05-17T16:02:44.145Z,97517.00
2019-05-17T16:05:11.503Z,97521.00
2019-05-17T16:07:38.599Z,97513.00
2019-05-17T16:10:07.664Z,97522.00
2019-05-17T16:12:34.863Z,97505.00
2019-05-17T16:15:03.627Z,97518.00
2019-05-17T16:17:30.903Z,97509.00
2019-05-17T16:19:57.903Z,97512.00
2019-05-17T16:22:25.513Z,97499.00
2019-05-17T16:24:53.059Z,97501.00
2019-05-17T16:27:20.458Z,97500.00
2019-05-17T16:29:47.915Z,97504.00
2019-05-17T16:32:15.281Z,97495.00
2019-05-17T16:34:42.589Z,97501.00
2019-05-17T16:37:09.871Z,97500.00
2019-05-17T16:39:37.208Z,97496.00
2019-05-17T16:42:05.079Z,97492.00
2019-05-17T16:44:32.434Z,97498.00
2019-05-17T16:47:00.211Z,97491.00
2019-05-17T16:49:28.565Z,97490.00
2019-05-17T16:51:56.346Z,97480.00
2019-05-17T16:54:23.799Z,97495.00
2019-05-17T16:56:51.008Z,97495.00
2019-05-17T16:59:18.510Z,97483.00
2019-05-17T17:01:45.740Z,97492.00
2019-05-17T17:04:13.119Z,97484.00
2019-05-17T17:06:40.699Z,97491.00
2019-05-17T17:09:08.031Z,97492.00
2019-05-17T17:11:35.989Z,97499.00
2019-05-17T17:14:04.009Z,97494.00
2019-05-17T17:16:31.313Z,97493.00
2019-05-17T17:18:58.521Z,97490.00
2019-05-17T17:21:26.037Z,97489.00
2019-05-17T17:23:53.172Z,97487.00
2019-05-17T17:26:20.666Z,97491.00
2019-05-17T17:28:48.290Z,97488.00
2019-05-17T17:31:16.100Z,97489.00
2019-05-17T17:33:43.616Z,97486.00
2019-05-17T17:36:30.506Z,97485.00
2019-05-17T17:38:57.830Z,97489.00
2019-05-17T17:41:26.656Z,97488.00
2019-05-17T17:43:58.752Z,97486.00
2019-05-17T17:46:23.580Z,97479.00
2019-05-17T17:48:50.980Z,97484.00
2019-05-17T17:51:18.497Z,97481.00
2019-05-17T17:53:45.852Z,97482.00
2019-05-17T17:56:13.786Z,97492.00
2019-05-17T17:58:41.144Z,97489.00
2019-05-17T18:01:08.277Z,97496.00
2019-05-17T18:03:35.454Z,97493.00
2019-05-17T18:06:02.557Z,97495.00
2019-05-17T18:08:34.437Z,97492.00
2019-05-17T18:13:30.255Z,97500.00
2019-05-17T18:15:57.902Z,97488.00
2019-05-17T18:18:25.456Z,97495.00
2019-05-17T18:20:52.835Z,97492.00
2019-05-17T18:23:23.369Z,97497.00
2019-05-17T18:25:49.575Z,97501.00
2019-05-17T18:28:16.680Z,97499.00
2019-05-17T18:30:44.281Z,97505.00
2019-05-17T18:33:11.842Z,97495.00
2019-05-17T18:35:39.401Z,97499.00
2019-05-17T18:38:07.103Z,97512.00
2019-05-17T18:40:34.401Z,97511.00
2019-05-17T18:43:01.856Z,97511.00
2019-05-17T18:45:29.331Z,97516.00
2019-05-17T18:47:56.576Z,97516.00
2019-05-17T18:50:24.129Z,97521.00
2019-05-17T18:52:51.703Z,97526.00
2019-05-17T18:55:19.147Z,97529.00
2019-05-17T18:57:46.557Z,97529.00
2019-05-17T19:00:15.908Z,97537.00
2019-05-17T19:02:43.368Z,97541.00
2019-05-17T19:05:10.822Z,97540.00
2019-05-17T19:07:37.966Z,97553.00
2019-05-17T19:10:09.019Z,97545.00
2019-05-17T19:12:36.354Z,97540.00
2019-05-17T19:15:07.949Z,97545.00
2019-05-17T19:17:35.118Z,97541.00
2019-05-17T19:20:04.972Z,97550.00
2019-05-17T19:22:32.243Z,97549.00
2019-05-17T19:24:59.586Z,97553.00
2019-05-17T19:27:27.143Z,97555.00
2019-05-17T19:29:54.571Z,97558.00
2019-05-17T19:32:22.080Z,97555.00
2019-05-17T19:34:49.373Z,97569.00
2019-05-17T19:37:16.959Z,97555.00
2019-05-17T19:39:44.478Z,97565.00
2019-05-17T19:42:11.670Z,97575.00
2019-05-17T19:44:38.820Z,97575.00
2019-05-17T19:47:06.268Z,97572.00
2019-05-17T19:49:33.914Z,97576.00
2019-05-17T19:52:01.494Z,97572.00
2019-05-17T19:54:28.942Z,97573.00
2019-05-17T19:56:56.230Z,97572.00
2019-05-17T19:59:23.649Z,97574.00
2019-05-17T20:01:51.203Z,97574.00
2019-05-17T20:04:18.709Z,97584.00
2019-05-17T20:06:46.052Z,97578.00
2019-05-17T20:09:13.374Z,97578.00
2019-05-17T20:11:40.838Z,97584.00
2019-05-17T20:14:07.992Z,97590.00
2019-05-17T20:16:35.237Z,97589.00
2019-05-17T20:19:02.986Z,97593.00
2019-05-17T20:21:30.527Z,97593.00
2019-05-17T20:23:57.902Z,97595.00
2019-05-17T20:26:25.263Z,97592.00
2019-05-17T20:28:53.589Z,97591.00
2019-05-17T20:31:21.029Z,97595.00
2019-05-17T20:33:48.469Z,97592.00
2019-05-17T20:36:15.603Z,97597.00
2019-05-17T20:38:43.463Z,97598.00
2019-05-17T20:41:10.637Z,97596.00
2019-05-17T20:43:38.369Z,97593.00
2019-05-17T20:46:05.715Z,97593.00
2019-05-17T20:48:32.904Z,97586.00
2019-05-17T20:51:00.559Z,97591.00
2019-05-17T20:53:27.994Z,97587.00
2019-05-17T20:55:55.919Z,97589.00
2019-05-17T20:58:23.197Z,97588.00
2019-05-17T21:00:51.033Z,97586.00
2019-05-17T21:03:18.282Z,97590.00
2019-05-17T21:05:45.777Z,97596.00
2019-05-17T21:08:13.266Z,97590.00
2019-05-17T21:10:40.925Z,97597.00
2019-05-17T21:13:08.148Z,97594.00
2019-05-17T21:15:47.014Z,97589.00
2019-05-17T21:18:05.249Z,97593.00
2019-05-17T21:20:32.725Z,97590.00
2019-05-17T21:23:00.230Z,97598.00
2019-05-17T21:25:27.794Z,97593.00
2019-05-17T21:27:55.266Z,97596.00
2019-05-17T21:30:22.480Z,97592.00
2019-05-17T21:32:50.053Z,97599.00
2019-05-17T21:35:17.430Z,97602.00
2019-05-17T21:37:44.761Z,97602.00
2019-05-17T21:40:12.517Z,97602.00
2019-05-17T21:42:40.070Z,97601.00
2019-05-17T21:45:08.585Z,97602.00
2019-05-17T21:47:36.215Z,97607.00
2019-05-17T21:50:03.825Z,97604.00
2019-05-17T21:52:31.445Z,97609.00
2019-05-17T21:54:58.890Z,97613.00
2019-05-17T21:57:26.349Z,97602.00
2019-05-17T21:59:53.879Z,97607.00
2019-05-17T22:02:21.355Z,97607.00
2019-05-17T22:04:48.821Z,97607.00
2019-05-17T22:07:16.083Z,97608.00
2019-05-17T22:09:43.724Z,97610.00
2019-05-17T22:12:13.024Z,97607.00
2019-05-17T22:14:40.701Z,97608.00
2019-05-17T22:17:08.450Z,97606.00
2019-05-17T22:19:35.810Z,97604.00
2019-05-17T22:22:03.230Z,97606.00
2019-05-17T22:24:30.720Z,97605.00
2019-05-17T22:26:58.040Z,97611.00
2019-05-17T22:29:25.226Z,97602.00
2019-05-17T22:31:52.375Z,97600.00
2019-05-17T22:34:19.930Z,97601.00
2019-05-17T22:36:47.277Z,97600.00
2019-05-17T22:39:14.834Z,97602.00
2019-05-17T22:41:42.229Z,97607.00
2019-05-17T22:44:09.771Z,97601.00
2019-05-17T22:46:37.170Z,97610.00
2019-05-17T22:49:04.654Z,97591.00
2019-05-17T22:51:32.018Z,97601.00
2019-05-17T22:53:59.584Z,97599.00
2019-05-17T22:56:27.442Z,97597.00
2019-05-17T22:58:54.895Z,97591.00
2019-05-17T23:01:22.587Z,97593.00
2019-05-17T23:03:49.815Z,97594.00
2019-05-17T23:06:17.256Z,97588.00
2019-05-17T23:08:44.691Z,97588.00
2019-05-17T23:11:12.073Z,97594.00
2019-05-17T23:13:39.514Z,97590.00
2019-05-17T23:16:08.825Z,97598.00
2019-05-17T23:18:36.235Z,97595.00
2019-05-17T23:21:03.909Z,97598.00
2019-05-17T23:23:31.190Z,97592.00
2019-05-17T23:25:58.785Z,97588.00
2019-05-17T23:28:26.135Z,97594.00
2019-05-17T23:30:53.375Z,97596.00
2019-05-17T23:33:21.730Z,97592.00
2019-05-17T23:35:49.088Z,97595.00
2019-05-17T23:38:16.849Z,97596.00
2019-05-17T23:40:44.300Z,97590.00
2019-05-17T23:43:11.730Z,97587.00
2019-05-17T23:45:39.322Z,97589.00
2019-05-17T23:48:06.881Z,97590.00
2019-05-17T23:50:34.261Z,97589.00
2019-05-17T23:53:01.586Z,97592.00
2019-05-17T23:55:28.838Z,97589.00
2019-05-17T23:57:56.011Z,97589.00
